createdAt,value
2017-10-16T00:00:55.928Z,22.97
2017-10-16T00:02:05.300Z,22.97
2017-10-16T00:03:14.300Z,22.97
2017-10-16T00:04:23.644Z,22.94
2017-10-16T00:05:32.639Z,22.94
2017-10-16T00:06:41.629Z,22.88
2017-10-16T00:07:50.949Z,22.97
2017-10-16T00:08:59.938Z,22.92
2017-10-16T00:10:09.273Z,22.86
2017-10-16T00:11:18.265Z,22.97
2017-10-16T00:12:27.571Z,22.91
2017-10-16T00:13:37.243Z,22.92
2017-10-16T00:14:46.895Z,22.94
2017-10-16T00:15:56.209Z,22.94
2017-10-16T00:17:04.883Z,22.97
2017-10-16T00:18:13.539Z,22.97
2017-10-16T00:19:22.862Z,22.91
2017-10-16T00:20:32.177Z,22.9
2017-10-16T00:21:41.492Z,22.9
2017-10-16T00:22:50.580Z,22.95
2017-10-16T00:23:59.903Z,22.98
2017-10-16T00:25:08.894Z,22.97
2017-10-16T00:26:17.564Z,22.9
2017-10-16T00:27:26.881Z,22.94
2017-10-16T00:28:36.200Z,22.95
2017-10-16T00:29:44.863Z,22.94
2017-10-16T00:30:54.516Z,22.97
2017-10-16T00:32:03.271Z,22.92
2017-10-16T00:33:12.250Z,22.92
2017-10-16T00:34:21.580Z,22.95
2017-10-16T00:35:30.906Z,22.95
2017-10-16T00:36:39.893Z,22.91
2017-10-16T00:37:49.276Z,22.88
2017-10-16T00:38:58.628Z,22.9
2017-10-16T00:40:07.353Z,22.97
2017-10-16T00:41:16.991Z,22.95
2017-10-16T00:42:26.621Z,22.92
2017-10-16T00:43:35.590Z,22.92
2017-10-16T00:44:44.899Z,22.94
2017-10-16T00:45:54.555Z,22.97
2017-10-16T00:47:03.225Z,22.95
2017-10-16T00:48:12.221Z,22.97
2017-10-16T00:49:21.543Z,22.94
2017-10-16T00:50:30.211Z,22.88
2017-10-16T00:51:39.555Z,22.97
2017-10-16T00:52:49.206Z,22.94
2017-10-16T00:53:58.201Z,22.91
2017-10-16T00:55:07.586Z,22.97
2017-10-16T00:56:16.668Z,22.95
2017-10-16T00:57:25.327Z,22.91
2017-10-16T00:58:34.354Z,22.97
2017-10-16T00:59:43.365Z,22.97
2017-10-16T01:00:52.035Z,22.94
2017-10-16T01:02:01.027Z,22.94
2017-10-16T01:03:10.008Z,22.92
2017-10-16T01:04:19.011Z,22.92
2017-10-16T01:05:27.674Z,22.97
2017-10-16T01:06:36.671Z,22.94
2017-10-16T01:07:45.653Z,22.94
2017-10-16T01:08:54.640Z,22.92
2017-10-16T01:10:03.620Z,22.94
2017-10-16T01:11:13.278Z,22.9
2017-10-16T01:12:22.931Z,22.95
2017-10-16T01:13:31.931Z,22.94
2017-10-16T01:14:41.248Z,22.92
2017-10-16T01:15:50.242Z,22.95
2017-10-16T01:16:59.564Z,22.97
2017-10-16T01:18:08.575Z,22.91
2017-10-16T01:19:17.567Z,22.95
2017-10-16T01:20:26.544Z,22.85
2017-10-16T01:21:35.536Z,22.91
2017-10-16T01:22:44.534Z,22.95
2017-10-16T01:23:53.849Z,22.9
2017-10-16T01:25:02.846Z,22.88
2017-10-16T01:26:11.949Z,22.91
2017-10-16T01:27:20.619Z,22.88
2017-10-16T01:28:29.284Z,22.88
2017-10-16T01:29:38.611Z,22.94
2017-10-16T01:30:47.926Z,22.86
2017-10-16T01:31:56.931Z,22.91
2017-10-16T01:33:05.914Z,22.91
2017-10-16T01:34:14.558Z,22.97
2017-10-16T01:35:23.560Z,22.94
2017-10-16T01:36:32.206Z,22.94
2017-10-16T01:37:41.184Z,22.92
2017-10-16T01:38:50.514Z,22.91
2017-10-16T01:39:59.213Z,22.91
2017-10-16T01:41:08.180Z,22.95
2017-10-16T01:42:17.172Z,22.9
2017-10-16T01:43:26.163Z,22.88
2017-10-16T01:44:35.501Z,22.91
2017-10-16T01:45:44.492Z,22.9
2017-10-16T01:46:53.148Z,22.91
2017-10-16T01:48:01.816Z,22.88
2017-10-16T01:49:10.818Z,22.94
2017-10-16T01:50:19.483Z,22.91
2017-10-16T01:51:28.139Z,22.9
2017-10-16T01:52:37.467Z,22.86
2017-10-16T01:53:46.478Z,22.88
2017-10-16T01:54:56.107Z,22.91
2017-10-16T01:56:05.106Z,22.9
2017-10-16T01:57:14.127Z,22.9
2017-10-16T01:58:23.440Z,22.85
2017-10-16T01:59:32.754Z,22.86
2017-10-16T02:00:41.426Z,22.9
2017-10-16T02:01:51.068Z,22.91
2017-10-16T02:02:59.745Z,22.92
2017-10-16T02:04:08.746Z,22.86
2017-10-16T02:05:17.744Z,22.88
2017-10-16T02:06:26.857Z,22.91
2017-10-16T02:07:35.838Z,22.9
2017-10-16T02:08:45.479Z,22.91
2017-10-16T02:09:54.149Z,22.95
2017-10-16T02:11:03.135Z,22.94
2017-10-16T02:12:12.470Z,22.83
2017-10-16T02:13:22.119Z,22.86
2017-10-16T02:14:31.447Z,22.94
2017-10-16T02:15:40.762Z,22.86
2017-10-16T02:16:50.104Z,22.91
2017-10-16T02:17:59.132Z,22.92
2017-10-16T02:19:08.455Z,22.85
2017-10-16T02:20:17.175Z,22.85
2017-10-16T02:21:26.167Z,22.85
2017-10-16T02:22:35.477Z,22.83
2017-10-16T02:23:44.120Z,22.9
2017-10-16T02:24:53.445Z,22.9
2017-10-16T02:26:02.750Z,22.9
2017-10-16T02:27:11.770Z,22.85
2017-10-16T02:28:21.403Z,22.91
2017-10-16T02:29:30.719Z,22.85
2017-10-16T02:30:40.358Z,22.86
2017-10-16T02:31:49.693Z,22.9
2017-10-16T02:32:59.004Z,22.86
2017-10-16T02:34:08.318Z,22.85
2017-10-16T02:35:16.973Z,22.86
2017-10-16T02:36:25.963Z,22.86
2017-10-16T02:37:35.030Z,22.83
2017-10-16T02:38:45.019Z,22.88
2017-10-16T02:39:54.009Z,22.85
2017-10-16T02:41:02.994Z,22.88
2017-10-16T02:43:20.972Z,22.77
2017-10-16T02:44:29.958Z,22.85
2017-10-16T02:45:38.960Z,22.85
2017-10-16T02:46:47.948Z,22.85
2017-10-16T02:47:56.617Z,22.85
2017-10-16T02:49:05.609Z,22.88
2017-10-16T02:50:14.614Z,22.88
2017-10-16T02:51:23.939Z,22.8
2017-10-16T02:52:32.924Z,22.83
2017-10-16T02:53:42.236Z,22.86
2017-10-16T02:54:50.892Z,22.85
2017-10-16T02:55:59.567Z,22.85
2017-10-16T02:57:08.879Z,22.86
2017-10-16T02:58:18.199Z,22.86
2017-10-16T02:59:27.842Z,22.82
2017-10-16T03:00:36.508Z,22.83
2017-10-16T03:01:45.809Z,22.85
2017-10-16T03:02:54.803Z,22.88
2017-10-16T03:04:04.443Z,22.82
2017-10-16T03:05:14.073Z,22.79
2017-10-16T03:06:23.403Z,22.86
2017-10-16T03:07:32.087Z,22.79
2017-10-16T03:08:41.088Z,22.86
2017-10-16T03:09:50.113Z,22.82
2017-10-16T03:10:58.781Z,22.8
2017-10-16T03:12:07.772Z,22.8
2017-10-16T03:13:16.771Z,22.8
2017-10-16T03:14:25.743Z,22.83
2017-10-16T03:15:34.722Z,22.8
2017-10-16T03:16:43.379Z,22.86
2017-10-16T03:17:52.697Z,22.77
2017-10-16T03:19:01.679Z,22.82
2017-10-16T03:20:10.722Z,22.82
2017-10-16T03:21:20.394Z,22.82
2017-10-16T03:22:29.688Z,22.82
2017-10-16T03:23:38.992Z,22.79
2017-10-16T03:24:48.319Z,22.8
2017-10-16T03:25:57.949Z,22.77
2017-10-16T03:27:07.607Z,22.85
2017-10-16T03:28:16.602Z,22.85
2017-10-16T03:29:25.902Z,22.8
2017-10-16T03:30:34.874Z,22.83
2017-10-16T03:31:43.518Z,22.83
2017-10-16T03:32:52.816Z,22.82
2017-10-16T03:34:01.464Z,22.85
2017-10-16T03:35:10.757Z,22.8
2017-10-16T03:36:20.082Z,22.82
2017-10-16T03:37:28.735Z,22.82
2017-10-16T03:38:37.711Z,22.79
2017-10-16T03:39:46.359Z,22.77
2017-10-16T03:40:55.673Z,22.85
2017-10-16T03:42:04.661Z,22.82
2017-10-16T03:43:13.300Z,22.8
2017-10-16T03:44:22.276Z,22.79
2017-10-16T03:45:31.577Z,22.85
2017-10-16T03:46:40.884Z,22.79
2017-10-16T03:47:49.876Z,22.82
2017-10-16T03:48:58.856Z,22.86
2017-10-16T03:50:07.844Z,22.85
2017-10-16T03:51:16.886Z,22.82
2017-10-16T03:52:25.878Z,22.8
2017-10-16T03:53:35.538Z,22.82
2017-10-16T03:54:44.531Z,22.77
2017-10-16T03:55:53.932Z,22.85
2017-10-16T03:57:02.954Z,22.82
2017-10-16T03:58:11.942Z,22.8
2017-10-16T03:59:20.605Z,22.77
2017-10-16T04:00:29.596Z,22.85
2017-10-16T04:01:38.921Z,22.8
2017-10-16T04:02:48.223Z,22.85
2017-10-16T04:03:57.211Z,22.85
2017-10-16T04:05:06.207Z,22.77
2017-10-16T04:06:14.870Z,22.79
2017-10-16T04:07:23.857Z,22.79
2017-10-16T04:08:33.180Z,22.83
2017-10-16T04:09:42.198Z,22.82
2017-10-16T04:10:51.194Z,22.82
2017-10-16T04:12:00.517Z,22.8
2017-10-16T04:13:09.534Z,22.85
2017-10-16T04:14:18.835Z,22.73
2017-10-16T04:15:27.496Z,22.8
2017-10-16T04:16:36.797Z,22.8
2017-10-16T04:17:45.768Z,22.82
2017-10-16T04:18:55.115Z,22.77
2017-10-16T04:20:04.448Z,22.77
2017-10-16T04:21:13.766Z,22.79
2017-10-16T04:22:22.457Z,22.76
2017-10-16T04:23:31.766Z,22.79
2017-10-16T04:24:40.762Z,22.8
2017-10-16T04:25:49.404Z,22.76
2017-10-16T04:26:58.448Z,22.82
2017-10-16T04:28:07.110Z,22.88
2017-10-16T04:29:15.777Z,22.82
2017-10-16T04:30:24.802Z,22.76
2017-10-16T04:31:33.496Z,22.76
2017-10-16T04:32:42.225Z,22.82
2017-10-16T04:33:51.858Z,22.8
2017-10-16T04:35:00.629Z,22.72
2017-10-16T04:36:09.416Z,22.82
2017-10-16T04:37:18.186Z,22.77
2017-10-16T04:38:26.854Z,22.79
2017-10-16T04:39:35.575Z,22.77
2017-10-16T04:40:44.257Z,22.79
2017-10-16T04:41:52.946Z,22.76
2017-10-16T04:43:02.033Z,22.82
2017-10-16T04:44:11.023Z,22.77
2017-10-16T04:45:20.029Z,22.8
2017-10-16T04:46:29.060Z,22.76
2017-10-16T04:47:38.055Z,22.75
2017-10-16T04:48:47.074Z,22.76
2017-10-16T04:49:56.069Z,22.72
2017-10-16T04:53:37.122Z,22.76
2017-10-16T04:57:18.930Z,22.73
2017-10-16T04:58:28.278Z,22.76
2017-10-16T04:59:37.936Z,22.85
2017-10-16T05:00:47.330Z,22.75
2017-10-16T05:01:57.028Z,22.77
2017-10-16T05:03:06.857Z,22.82
2017-10-16T05:04:16.175Z,22.79
2017-10-16T05:05:24.890Z,22.77
2017-10-16T05:06:34.256Z,22.79
2017-10-16T05:07:43.594Z,22.77
2017-10-16T05:08:52.608Z,22.77
2017-10-16T05:10:01.317Z,22.82
2017-10-16T05:11:11.008Z,22.8
2017-10-16T05:12:20.346Z,22.79
2017-10-16T05:13:29.336Z,22.8
2017-10-16T05:14:38.457Z,22.8
2017-10-16T05:15:47.573Z,22.75
2017-10-16T05:16:56.770Z,22.77
2017-10-16T05:18:05.423Z,22.76
2017-10-16T05:19:14.872Z,22.85
2017-10-16T05:20:24.447Z,22.85
2017-10-16T05:21:34.113Z,22.88
2017-10-16T05:22:43.439Z,22.88
2017-10-16T05:23:52.212Z,22.91
2017-10-16T05:25:00.960Z,22.91
2017-10-16T05:26:10.747Z,22.97
2017-10-16T05:27:19.458Z,22.92
2017-10-16T05:28:29.155Z,22.97
2017-10-16T05:29:38.170Z,22.97
2017-10-16T05:30:46.841Z,23
2017-10-16T05:31:55.531Z,23.04
2017-10-16T05:35:37.152Z,23.12
2017-10-16T05:36:46.534Z,23.1
2017-10-16T05:37:55.573Z,23.04
2017-10-16T05:39:04.300Z,23.16
2017-10-16T05:40:13.301Z,23.15
2017-10-16T05:41:22.631Z,23.16
2017-10-16T05:42:31.311Z,23.15
2017-10-16T05:43:40.314Z,23.1
2017-10-16T05:44:49.338Z,23.15
2017-10-16T05:45:58.011Z,23.25
2017-10-16T05:47:07.116Z,23.22
2017-10-16T05:48:16.127Z,23.15
2017-10-16T05:49:24.822Z,23.17
2017-10-16T05:50:34.234Z,23.22
2017-10-16T05:51:43.544Z,23.25
2017-10-16T05:52:52.248Z,23.17
2017-10-16T05:54:01.240Z,23.25
2017-10-16T05:55:10.255Z,23.23
2017-10-16T05:56:19.915Z,23.22
2017-10-16T05:57:29.266Z,23.12
2017-10-16T05:58:38.249Z,23.07
2017-10-16T05:59:46.917Z,23.05
2017-10-16T06:00:56.243Z,23.05
2017-10-16T06:02:05.585Z,23
2017-10-16T06:03:15.216Z,23.02
2017-10-16T06:04:24.219Z,23
2017-10-16T06:08:05.555Z,22.97
2017-10-16T06:09:14.870Z,23.02
2017-10-16T06:10:23.860Z,23
2017-10-16T06:11:33.166Z,23.02
2017-10-16T06:12:42.473Z,23.02
